Time;durP1;ratioP1;P1;durP2;ratioP2;P2;SDS_P1;SDS_P2;PMS_P1;PMS_P2;Temp;Humidity;BMP_temperature;BMP_pressure;BME280_temperature;BME280_humidity;BME280_pressure;Samples;Min_cycle;Max_cycle;Signal;HPM_P1;HPM_P2
2021/12/25 00:03:04;;;;;;;2.88;0.90;;;20.10;53.60;;;;;;4493021;32;20129;-72
2021/12/25 00:05:30;;;;;;;3.88;0.70;;;20.00;53.50;;;;;;4480732;32;20238;-72
2021/12/25 00:07:56;;;;;;;2.83;0.65;;;20.00;53.50;;;;;;4492555;32;20124;-72
2021/12/25 00:10:22;;;;;;;3.45;1.20;;;20.00;53.60;;;;;;4493702;31;20129;-72
2021/12/25 00:12:49;;;;;;;2.38;0.80;;;20.00;53.60;;;;;;4483476;31;20136;-72
2021/12/25 00:15:15;;;;;;;3.25;0.80;;;19.90;53.50;;;;;;4482843;31;20202;-72
2021/12/25 00:17:42;;;;;;;4.60;0.80;;;19.90;53.50;;;;;;4496958;31;20135;-73
2021/12/25 00:20:08;;;;;;;5.22;0.93;;;19.90;53.60;;;;;;4495663;31;20672;-72
2021/12/25 00:22:34;;;;;;;2.53;0.70;;;19.90;53.60;;;;;;4497851;31;20144;-72
2021/12/25 00:25:00;;;;;;;2.88;0.75;;;19.90;53.60;;;;;;4482491;31;20121;-72
2021/12/25 00:34:50;;;;;;;2.42;0.63;;;19.80;53.60;;;;;;4497637;31;20109;-72
2021/12/25 00:37:16;;;;;;;3.97;0.80;;;19.70;53.50;;;;;;4496512;31;20294;-72
2021/12/25 00:39:43;;;;;;;2.28;0.50;;;19.70;53.50;;;;;;4497318;31;20128;-72
2021/12/25 00:42:11;;;;;;;1.92;0.55;;;19.70;53.50;;;;;;4482669;31;20198;-72
2021/12/25 00:44:37;;;;;;;2.90;0.60;;;19.60;53.40;;;;;;4482610;31;20195;-72
2021/12/25 00:47:04;;;;;;;3.78;0.88;;;19.60;53.40;;;;;;4495785;31;20565;-72
2021/12/25 00:49:30;;;;;;;3.65;0.70;;;19.60;53.40;;;;;;4496351;31;20133;-72
2021/12/25 00:51:56;;;;;;;2.53;0.60;;;19.60;54.30;;;;;;4496574;31;20127;-72
2021/12/25 00:54:23;;;;;;;2.72;0.93;;;19.50;53.30;;;;;;4468771;31;20533;-72
2021/12/25 00:56:49;;;;;;;2.10;0.70;;;19.50;53.20;;;;;;4483215;31;20160;-72
2021/12/25 00:59:15;;;;;;;2.20;0.55;;;19.50;53.20;;;;;;4496267;31;20128;-72
2021/12/25 01:01:41;;;;;;;3.78;0.50;;;19.50;53.30;;;;;;4495710;31;20226;-72
2021/12/25 01:04:07;;;;;;;5.30;0.90;;;19.50;53.30;;;;;;4496741;31;20132;-72
2021/12/25 01:06:33;;;;;;;2.47;0.60;;;19.50;53.30;;;;;;4495105;31;20125;-71
2021/12/25 01:09:00;;;;;;;0.85;0.30;;;19.40;53.20;;;;;;4497342;31;20144;-72
2021/12/25 01:11:28;;;;;;;1.80;0.50;;;19.40;53.20;;;;;;4494752;31;20241;-71
2021/12/25 01:14:08;;;;;;;2.08;0.52;;;19.40;53.20;;;;;;4495915;31;20124;-71
2021/12/25 01:35:14;;;;;;;2.25;0.60;;;19.20;53.10;;;;;;4496789;31;20245;-71
2021/12/25 01:37:57;;;;;;;0.93;0.35;;;19.20;53.00;;;;;;4495922;31;20124;-71
2021/12/25 01:48:39;;;;;;;2.17;0.52;;;19.10;52.80;;;;;;4495227;31;20295;-72
2021/12/25 01:51:06;;;;;;;1.85;0.32;;;19.10;52.70;;;;;;4482085;31;20143;-72
2021/12/25 01:53:32;;;;;;;1.23;0.50;;;19.00;52.60;;;;;;4494720;31;20190;-72
2021/12/25 01:56:00;;;;;;;1.90;0.50;;;19.00;52.60;;;;;;4509730;31;20134;-71
2021/12/25 01:58:26;;;;;;;2.22;0.50;;;19.00;52.50;;;;;;4510544;31;20164;-71
2021/12/25 02:00:55;;;;;;;2.45;0.55;;;19.00;52.50;;;;;;4497848;31;20124;-71
2021/12/25 02:03:26;;;;;;;1.15;0.47;;;19.00;52.40;;;;;;4496994;31;20191;-72
2021/12/25 02:05:52;;;;;;;1.15;0.43;;;19.00;52.50;;;;;;4510805;31;20146;-72
2021/12/25 02:08:18;;;;;;;1.05;0.40;;;19.00;52.40;;;;;;4497022;31;20147;-71
2021/12/25 02:10:45;;;;;;;2.88;0.60;;;18.90;52.40;;;;;;4510172;31;20142;-72
2021/12/25 02:13:12;;;;;;;1.65;0.40;;;18.90;52.40;;;;;;4497571;31;20143;-70
2021/12/25 02:15:48;;;;;;;1.08;0.30;;;18.90;52.40;;;;;;4511163;31;20283;-71
2021/12/25 02:18:25;;;;;;;1.55;0.32;;;18.90;52.30;;;;;;4511095;31;20167;-71
2021/12/25 02:23:22;;;;;;;1.45;0.35;;;18.80;52.20;;;;;;4510186;31;20681;-71
2021/12/25 02:25:55;;;;;;;2.33;0.28;;;18.80;52.20;;;;;;4510749;31;20136;-72
2021/12/25 02:28:24;;;;;;;1.85;0.50;;;18.80;52.10;;;;;;4509641;31;20121;-71
2021/12/25 02:30:53;;;;;;;1.42;0.30;;;18.70;52.00;;;;;;4510644;31;20138;-71
2021/12/25 02:33:19;;;;;;;1.67;0.63;;;18.70;52.00;;;;;;4509235;31;20159;-72
2021/12/25 02:35:47;;;;;;;1.17;0.30;;;18.70;52.00;;;;;;4497176;31;20263;-71
2021/12/25 02:38:14;;;;;;;1.90;0.40;;;18.70;52.00;;;;;;4510021;31;20561;-71
2021/12/25 02:40:40;;;;;;;0.88;0.28;;;18.70;52.00;;;;;;4509812;31;20124;-71
2021/12/25 02:43:06;;;;;;;0.63;0.20;;;18.70;51.90;;;;;;4511350;31;20577;-71
2021/12/25 02:45:32;;;;;;;2.47;0.32;;;18.70;51.80;;;;;;4496364;31;20089;-71
2021/12/25 02:48:09;;;;;;;1.63;0.30;;;18.70;51.80;;;;;;4484493;31;20151;-71
2021/12/25 02:50:38;;;;;;;0.28;0.20;;;18.60;51.80;;;;;;4510614;31;20510;-71
2021/12/25 02:53:07;;;;;;;1.23;0.30;;;18.60;51.80;;;;;;4497078;31;20140;-71
2021/12/25 02:55:33;;;;;;;0.38;0.10;;;18.60;51.70;;;;;;4509571;31;20117;-72
2021/12/25 02:57:59;;;;;;;0.40;0.30;;;18.60;51.70;;;;;;4496355;31;20124;-71
2021/12/25 03:00:29;;;;;;;0.52;0.22;;;18.50;51.70;;;;;;4510060;31;20163;-71
2021/12/25 03:02:56;;;;;;;1.17;0.30;;;18.50;51.70;;;;;;4509388;31;20124;-72
2021/12/25 03:05:23;;;;;;;0.57;0.28;;;18.50;51.70;;;;;;4510085;31;20135;-71
2021/12/25 03:07:49;;;;;;;1.40;0.32;;;18.50;51.70;;;;;;4509203;31;20194;-71
2021/12/25 03:10:18;;;;;;;0.82;0.30;;;18.50;51.70;;;;;;4496423;31;20132;-71
2021/12/25 03:13:06;;;;;;;1.17;0.40;;;18.50;51.70;;;;;;4509900;31;20181;-71
2021/12/25 03:15:45;;;;;;;1.20;0.22;;;18.50;51.70;;;;;;4487344;31;20224;-71
2021/12/25 03:18:24;;;;;;;0.75;0.20;;;18.40;51.70;;;;;;4510032;31;20136;-72
2021/12/25 03:20:56;;;;;;;0.40;0.20;;;18.40;51.50;;;;;;4509388;31;20144;-71
2021/12/25 03:23:25;;;;;;;1.42;0.40;;;18.40;51.60;;;;;;4510193;31;20132;-71
2021/12/25 03:25:53;;;;;;;0.80;0.20;;;18.40;51.60;;;;;;4509844;31;20143;-71
2021/12/25 03:28:22;;;;;;;1.45;0.35;;;18.40;51.60;;;;;;4509284;31;20136;-71
2021/12/25 03:30:49;;;;;;;1.45;0.38;;;18.30;51.50;;;;;;4511131;31;20183;-71
2021/12/25 03:33:18;;;;;;;1.27;0.40;;;18.30;51.40;;;;;;4509233;31;20186;-71
2021/12/25 03:35:44;;;;;;;0.63;0.30;;;18.30;51.40;;;;;;4509233;31;20128;-71
2021/12/25 03:38:15;;;;;;;0.88;0.30;;;18.30;51.40;;;;;;4483281;31;20209;-71
2021/12/25 03:40:42;;;;;;;0.52;0.30;;;18.30;51.40;;;;;;4509138;31;20132;-71
2021/12/25 03:43:08;;;;;;;1.17;0.40;;;18.30;51.40;;;;;;4509825;31;20189;-71
2021/12/25 03:45:34;;;;;;;0.95;0.30;;;18.30;51.40;;;;;;4497775;31;20132;-71
2021/12/25 03:48:16;;;;;;;0.70;0.40;;;18.20;51.30;;;;;;4513078;31;20151;-71
2021/12/25 03:58:51;;;;;;;0.30;0.20;;;18.10;51.30;;;;;;4513431;31;20135;-71
2021/12/25 04:06:33;;;;;;;0.65;0.20;;;18.10;51.30;;;;;;4499734;31;20128;-72
2021/12/25 04:09:04;;;;;;;0.43;0.20;;;18.10;51.30;;;;;;4512926;31;20197;-71
2021/12/25 04:11:34;;;;;;;0.63;0.20;;;18.10;51.30;;;;;;4511664;31;20120;-71
2021/12/25 04:14:00;;;;;;;0.40;0.10;;;18.10;51.30;;;;;;4500008;31;20124;-71
2021/12/25 04:16:28;;;;;;;0.77;0.10;;;18.10;51.30;;;;;;4498895;31;20214;-71
2021/12/25 04:18:55;;;;;;;1.17;0.30;;;18.00;51.30;;;;;;4499307;31;20195;-71
2021/12/25 04:21:23;;;;;;;0.98;0.13;;;18.00;51.30;;;;;;4512182;31;20150;-71
2021/12/25 04:23:49;;;;;;;0.98;0.20;;;18.00;51.30;;;;;;4498503;31;20158;-71
2021/12/25 04:26:15;;;;;;;1.00;0.38;;;18.00;52.30;;;;;;4512673;31;20146;-71
2021/12/25 04:28:52;;;;;;;0.32;0.20;;;18.00;51.40;;;;;;4485131;31;20136;-71
2021/12/25 05:01:40;;;;;;;1.15;0.30;;;17.80;51.40;;;;;;4512477;31;20196;-71
2021/12/25 05:04:11;;;;;;;0.50;0.20;;;17.70;51.30;;;;;;4512068;31;20556;-71
2021/12/25 05:06:37;;;;;;;1.90;0.35;;;17.70;51.30;;;;;;4498341;31;20175;-71
2021/12/25 05:09:03;;;;;;;0.30;0.10;;;17.70;51.30;;;;;;4498701;31;20749;-71
2021/12/25 05:11:29;;;;;;;0.65;0.20;;;17.70;51.20;;;;;;4512178;31;20152;-71
2021/12/25 05:13:55;;;;;;;1.55;0.35;;;17.70;51.20;;;;;;4511621;31;20510;-72
2021/12/25 05:16:21;;;;;;;1.10;0.20;;;17.70;51.20;;;;;;4497817;31;20148;-71
2021/12/25 05:18:50;;;;;;;1.52;0.30;;;17.60;51.10;;;;;;4484879;31;20120;-71
2021/12/25 05:21:18;;;;;;;2.55;0.95;;;17.60;51.10;;;;;;4485713;31;20747;-71
2021/12/25 05:23:44;;;;;;;0.93;0.30;;;17.60;51.10;;;;;;4497510;31;20140;-71
2021/12/25 05:26:10;;;;;;;0.85;0.20;;;17.60;51.10;;;;;;4498451;31;20156;-71
2021/12/25 05:28:41;;;;;;;0.20;0.10;;;17.60;51.10;;;;;;4497858;31;20644;-71
2021/12/25 05:31:09;;;;;;;0.38;0.20;;;17.60;51.20;;;;;;4498888;31;20604;-71
2021/12/25 05:33:36;;;;;;;0.90;0.35;;;17.60;51.10;;;;;;4510850;31;20117;-71
2021/12/25 05:36:03;;;;;;;0.70;0.20;;;17.50;51.10;;;;;;4511862;31;20150;-71
2021/12/25 05:38:29;;;;;;;0.65;0.20;;;17.50;51.10;;;;;;4511157;31;20237;-71
2021/12/25 05:40:56;;;;;;;1.35;0.20;;;17.50;51.10;;;;;;4510262;31;20142;-71
2021/12/25 05:43:22;;;;;;;0.35;0.10;;;17.50;51.10;;;;;;4511608;31;20229;-72
2021/12/25 05:45:49;;;;;;;1.05;0.20;;;17.50;51.10;;;;;;4497504;31;20144;-71
2021/12/25 05:48:15;;;;;;;1.05;0.20;;;17.50;51.10;;;;;;4511307;31;20136;-71
2021/12/25 05:50:41;;;;;;;0.60;0.20;;;17.50;51.10;;;;;;4497506;31;20825;-71
2021/12/25 05:53:07;;;;;;;0.60;0.20;;;17.40;51.10;;;;;;4510477;31;20179;-71
2021/12/25 05:55:33;;;;;;;0.85;0.30;;;17.40;51.10;;;;;;4497773;31;20156;-70
2021/12/25 05:58:02;;;;;;;0.35;0.10;;;17.40;51.20;;;;;;4510425;31;20182;-71
2021/12/25 06:00:28;;;;;;;0.98;0.32;;;17.40;51.20;;;;;;4498121;31;20144;-71
2021/12/25 06:02:54;;;;;;;0.80;0.30;;;17.40;51.10;;;;;;4496854;31;20105;-71
2021/12/25 06:05:20;;;;;;;0.20;0.10;;;17.30;51.00;;;;;;4510976;31;20144;-71
2021/12/25 06:07:46;;;;;;;0.50;0.20;;;17.40;51.00;;;;;;4496136;31;20140;-71
2021/12/25 06:10:12;;;;;;;0.65;0.15;;;17.30;50.90;;;;;;4497249;31;20131;-71
2021/12/25 06:12:40;;;;;;;0.60;0.20;;;17.30;50.90;;;;;;4510545;31;20613;-71
2021/12/25 06:15:11;;;;;;;0.30;0.13;;;17.30;50.90;;;;;;4496440;31;20293;-70
2021/12/25 06:17:37;;;;;;;0.60;0.20;;;17.30;50.90;;;;;;4512151;31;20217;-70
2021/12/25 06:20:05;;;;;;;0.80;0.20;;;17.30;51.00;;;;;;4483535;31;20148;-71
2021/12/25 06:22:31;;;;;;;0.68;0.20;;;17.30;51.00;;;;;;4510591;31;20120;-71
2021/12/25 06:24:57;;;;;;;1.27;0.30;;;17.30;50.90;;;;;;4509597;31;20144;-71
2021/12/25 06:27:23;;;;;;;1.02;0.35;;;17.20;50.90;;;;;;4510155;31;20113;-71
2021/12/25 06:29:50;;;;;;;0.38;0.10;;;17.20;50.80;;;;;;4510112;31;20158;-71
2021/12/25 06:32:17;;;;;;;0.40;0.20;;;17.20;50.90;;;;;;4509948;31;20463;-70
2021/12/25 06:34:43;;;;;;;0.38;0.10;;;17.20;50.90;;;;;;4497399;31;20193;-71
2021/12/25 06:37:10;;;;;;;0.52;0.17;;;17.20;50.90;;;;;;4496375;31;20124;-71
2021/12/25 06:39:38;;;;;;;0.30;0.10;;;17.20;50.90;;;;;;4510509;31;20128;-71
2021/12/25 06:42:05;;;;;;;0.68;0.20;;;17.20;50.90;;;;;;4509720;31;20139;-71
2021/12/25 06:44:31;;;;;;;0.75;0.22;;;17.10;50.80;;;;;;4509961;31;20128;-71
2021/12/25 06:46:57;;;;;;;1.38;0.25;;;17.10;50.90;;;;;;4496740;31;20132;-70
2021/12/25 06:49:24;;;;;;;0.20;0.10;;;17.10;50.90;;;;;;4483326;31;20116;-71
2021/12/25 06:51:51;;;;;;;1.20;0.20;;;17.10;50.90;;;;;;4497269;31;20136;-70
2021/12/25 06:54:17;;;;;;;0.40;0.20;;;17.10;50.80;;;;;;4510677;31;20128;-70
2021/12/25 06:56:44;;;;;;;0.35;0.10;;;17.10;50.90;;;;;;4510296;31;20120;-71
2021/12/25 06:59:10;;;;;;;0.60;0.20;;;17.10;50.80;;;;;;4496362;31;20246;-70
2021/12/25 07:01:37;;;;;;;0.70;0.20;;;17.10;50.80;;;;;;4509827;31;20229;-71
2021/12/25 07:04:04;;;;;;;0.77;0.25;;;17.10;50.80;;;;;;4496496;31;20150;-71
2021/12/25 07:06:30;;;;;;;0.38;0.10;;;17.00;50.80;;;;;;4509262;31;20120;-70
2021/12/25 07:08:56;;;;;;;0.40;0.10;;;17.10;50.90;;;;;;4510078;31;20181;-71
2021/12/25 07:11:22;;;;;;;1.15;0.40;;;17.00;50.90;;;;;;4482940;31;20116;-72
2021/12/25 07:13:49;;;;;;;0.38;0.13;;;17.00;50.90;;;;;;4483843;31;20131;-71
2021/12/25 07:16:15;;;;;;;0.70;0.20;;;17.00;50.90;;;;;;4495929;31;20129;-71
2021/12/25 07:18:41;;;;;;;0.55;0.20;;;17.00;50.90;;;;;;4483247;31;20127;-71
2021/12/25 07:21:07;;;;;;;0.55;0.30;;;17.00;51.00;;;;;;4509261;31;20112;-71
2021/12/25 07:23:34;;;;;;;0.45;0.20;;;17.00;50.90;;;;;;4509557;31;20140;-71
2021/12/25 07:26:00;;;;;;;1.85;0.30;;;17.00;51.00;;;;;;4509938;31;20128;-71
2021/12/25 07:28:28;;;;;;;0.35;0.20;;;16.90;51.00;;;;;;4509309;31;20144;-71
2021/12/25 07:31:00;;;;;;;0.57;0.40;;;16.90;51.00;;;;;;4509771;31;20186;-70
2021/12/25 07:33:27;;;;;;;0.85;0.20;;;16.90;51.00;;;;;;4509185;31;20139;-71
2021/12/25 07:35:54;;;;;;;0.47;0.10;;;16.90;51.00;;;;;;4509520;31;20466;-71
2021/12/25 07:38:20;;;;;;;0.80;0.20;;;16.90;51.00;;;;;;4496416;31;20154;-70
2021/12/25 07:40:47;;;;;;;0.40;0.28;;;16.90;50.90;;;;;;4509208;31;20140;-72
2021/12/25 07:43:14;;;;;;;0.73;0.20;;;16.90;51.00;;;;;;4509571;31;20163;-70
2021/12/25 07:45:41;;;;;;;1.05;0.20;;;16.80;51.00;;;;;;4495993;31;20301;-70
2021/12/25 07:48:07;;;;;;;1.15;0.38;;;16.80;51.00;;;;;;4496404;31;20113;-70
2021/12/25 07:50:35;;;;;;;0.20;0.10;;;16.80;51.00;;;;;;4509130;31;20129;-71
2021/12/25 07:53:01;;;;;;;0.80;0.20;;;16.80;50.90;;;;;;4496372;31;20186;-71
2021/12/25 07:55:30;;;;;;;0.60;0.20;;;16.80;51.00;;;;;;4510672;31;20140;-71
2021/12/25 07:57:57;;;;;;;1.20;0.28;;;16.80;51.00;;;;;;4508929;31;20190;-71
2021/12/25 08:00:23;;;;;;;2.30;0.40;;;16.80;50.90;;;;;;4510598;31;20293;-70
2021/12/25 08:02:49;;;;;;;0.65;0.20;;;16.80;51.00;;;;;;4508821;31;20124;-70
2021/12/25 08:05:15;;;;;;;1.02;0.20;;;16.80;51.00;;;;;;4509299;31;20136;-71
2021/12/25 08:07:41;;;;;;;1.48;0.20;;;16.70;50.90;;;;;;4508861;31;20128;-70
2021/12/25 08:10:16;;;;;;;0.93;0.30;;;16.70;50.90;;;;;;4482759;31;20140;-70
2021/12/25 08:12:48;;;;;;;1.10;0.20;;;16.70;51.00;;;;;;4509446;31;20237;-71
2021/12/25 08:15:17;;;;;;;0.88;0.20;;;16.70;50.90;;;;;;4508536;31;20190;-70
2021/12/25 08:17:44;;;;;;;0.73;0.20;;;16.70;50.90;;;;;;4510856;31;20120;-70
2021/12/25 08:20:10;;;;;;;0.40;0.30;;;16.70;51.00;;;;;;4508464;31;20136;-71
2021/12/25 08:22:37;;;;;;;1.33;0.30;;;16.70;51.00;;;;;;4495996;31;20274;-71
2021/12/25 08:25:04;;;;;;;0.60;0.25;;;16.70;51.00;;;;;;4508972;31;20133;-70
2021/12/25 08:27:31;;;;;;;2.13;0.40;;;16.70;51.00;;;;;;4509153;31;20140;-71
2021/12/25 08:29:58;;;;;;;0.70;0.20;;;16.70;51.00;;;;;;4483093;31;20270;-72
2021/12/25 08:32:24;;;;;;;1.23;0.20;;;16.60;51.00;;;;;;4496722;31;20434;-70
2021/12/25 08:34:51;;;;;;;1.35;0.30;;;16.60;51.10;;;;;;4499218;31;20132;-68
2021/12/25 08:37:22;;;;;;;0.90;0.20;;;16.60;51.10;;;;;;4498063;31;20177;-68
2021/12/25 08:39:53;;;;;;;1.42;0.20;;;16.60;51.00;;;;;;4499633;31;20209;-70
2021/12/25 08:42:20;;;;;;;1.38;0.40;;;16.60;50.10;;;;;;4512783;31;20136;-70
2021/12/25 08:47:31;;;;;;;1.23;0.30;;;16.50;50.30;;;;;;4500391;31;20286;-68
2021/12/25 08:49:58;;;;;;;1.25;0.40;;;16.50;50.60;;;;;;4511377;31;20128;-68
2021/12/25 08:52:25;;;;;;;1.10;0.28;;;16.50;50.70;;;;;;4498693;31;20186;-69
2021/12/25 08:54:52;;;;;;;1.77;0.20;;;16.50;51.00;;;;;;4485065;31;20583;-69
2021/12/25 08:57:19;;;;;;;0.60;0.20;;;16.50;51.20;;;;;;4511220;31;20138;-69
2021/12/25 08:59:46;;;;;;;1.95;0.30;;;16.60;51.00;;;;;;4511631;31;20132;-69
2021/12/25 09:02:15;;;;;;;1.58;0.32;;;16.70;50.90;;;;;;4497853;31;20128;-68
2021/12/25 09:04:44;;;;;;;0.50;0.13;;;16.70;50.80;;;;;;4499202;31;20148;-68
2021/12/25 09:07:17;;;;;;;3.15;0.57;;;16.80;50.80;;;;;;4497447;31;20121;-69
2021/12/25 09:09:42;;;;;;;1.07;0.20;;;16.90;50.80;;;;;;4511927;31;20268;-69
2021/12/25 09:12:11;;;;;;;0.43;0.20;;;17.00;50.60;;;;;;4512338;31;20263;-69
2021/12/25 09:14:38;;;;;;;1.65;0.20;;;17.10;50.40;;;;;;4497777;31;20274;-69
2021/12/25 09:17:05;;;;;;;0.70;0.30;;;17.20;50.10;;;;;;4485351;31;20128;-69
2021/12/25 09:19:31;;;;;;;0.43;0.20;;;17.30;49.80;;;;;;4497571;31;20163;-68
2021/12/25 09:21:57;;;;;;;1.73;0.30;;;17.50;49.60;;;;;;4498549;31;20269;-69
2021/12/25 09:24:25;;;;;;;3.42;0.20;;;17.60;49.30;;;;;;4510618;31;20124;-69
2021/12/25 09:26:51;;;;;;;1.80;0.35;;;17.70;49.10;;;;;;4511404;31;20131;-68
2021/12/25 09:29:17;;;;;;;1.35;0.22;;;17.80;48.80;;;;;;4497704;31;20169;-68
2021/12/25 09:31:43;;;;;;;2.38;0.30;;;17.90;48.60;;;;;;4497715;31;20146;-68
2021/12/25 09:34:09;;;;;;;0.43;0.20;;;18.00;48.50;;;;;;4511369;31;20278;-67
2021/12/25 09:36:35;;;;;;;0.93;0.30;;;18.10;48.30;;;;;;4497210;31;20120;-68
2021/12/25 09:39:05;;;;;;;1.17;0.20;;;18.20;48.10;;;;;;4511714;31;20560;-69
2021/12/25 09:41:33;;;;;;;0.40;0.20;;;18.30;48.00;;;;;;4510257;31;20124;-69
2021/12/25 09:44:00;;;;;;;0.70;0.20;;;18.40;47.80;;;;;;4485188;31;20583;-68
2021/12/25 09:46:27;;;;;;;2.80;0.35;;;18.50;47.70;;;;;;4484566;31;20159;-70
2021/12/25 09:48:54;;;;;;;0.98;0.32;;;18.50;47.50;;;;;;4497484;31;20144;-69
2021/12/25 09:51:20;;;;;;;1.65;0.20;;;18.70;47.40;;;;;;4497697;31;20313;-69
2021/12/25 09:54:06;;;;;;;0.77;0.15;;;18.80;47.20;;;;;;4481370;31;20140;-67
2021/12/25 09:56:34;;;;;;;6.32;0.40;;;18.90;47.10;;;;;;4494395;31;20186;-68
2021/12/25 09:59:00;;;;;;;1.05;0.52;;;19.00;46.80;;;;;;4481098;31;20205;-69
2021/12/25 10:01:42;;;;;;;0.60;0.10;;;19.10;46.60;;;;;;4494256;31;20258;-68
2021/12/25 10:04:11;;;;;;;2.30;0.28;;;19.20;46.40;;;;;;4496770;31;20751;-68
2021/12/25 10:06:40;;;;;;;1.08;0.30;;;19.30;46.30;;;;;;4507267;31;20266;-68
2021/12/25 10:09:16;;;;;;;1.35;0.20;;;19.40;46.10;;;;;;4495006;31;20249;-69
2021/12/25 10:12:09;;;;;;;0.40;0.20;;;19.50;45.90;;;;;;4493563;31;20124;-69
2021/12/25 10:14:37;;;;;;;0.45;0.10;;;19.60;45.80;;;;;;4494261;31;20262;-70
2021/12/25 10:17:25;;;;;;;0.93;0.30;;;19.70;45.50;;;;;;4494923;31;20197;-70
2021/12/25 10:20:17;;;;;;;0.98;0.28;;;19.70;45.20;;;;;;4481007;31;20132;-70
2021/12/25 10:22:52;;;;;;;1.85;0.30;;;19.80;45.00;;;;;;4481975;31;20144;-70
2021/12/25 10:25:19;;;;;;;1.00;0.22;;;19.80;44.80;;;;;;4494441;31;20140;-70
2021/12/25 10:27:53;;;;;;;5.45;0.47;;;19.90;44.60;;;;;;4493839;31;20120;-68
2021/12/25 10:30:19;;;;;;;3.45;0.52;;;19.90;44.60;;;;;;4496225;31;20121;-68
2021/12/25 10:32:47;;;;;;;1.88;0.50;;;19.80;43.80;;;;;;4493673;31;20559;-70
2021/12/25 10:35:19;;;;;;;1.67;0.52;;;19.80;42.90;;;;;;4495982;31;20113;-72
2021/12/25 10:37:47;;;;;;;2.45;0.70;;;19.80;42.60;;;;;;4495072;31;20198;-72
2021/12/25 10:40:25;;;;;;;1.30;0.40;;;19.80;42.80;;;;;;4480919;31;20136;-68
2021/12/25 10:42:57;;;;;;;3.60;0.40;;;19.80;43.10;;;;;;4494680;31;20186;-69
2021/12/25 10:45:28;;;;;;;2.30;0.60;;;19.90;43.40;;;;;;4493693;31;20120;-69
2021/12/25 10:48:03;;;;;;;5.22;0.50;;;19.90;43.60;;;;;;4494450;31;20156;-69
2021/12/25 10:50:41;;;;;;;3.75;0.60;;;20.00;43.80;;;;;;4493560;31;20113;-70
2021/12/25 10:53:24;;;;;;;4.55;0.43;;;20.10;43.80;;;;;;4493916;31;20485;-68
2021/12/25 10:55:51;;;;;;;2.22;0.40;;;20.10;43.80;;;;;;4493962;31;20149;-72
2021/12/25 10:58:23;;;;;;;3.65;0.52;;;20.20;43.70;;;;;;4493633;31;20186;-73
2021/12/25 11:00:56;;;;;;;2.90;0.50;;;20.20;44.50;;;;;;4495505;31;20144;-72
2021/12/25 11:03:31;;;;;;;1.25;0.40;;;20.30;43.60;;;;;;4493699;31;20137;-71
2021/12/25 11:06:23;;;;;;;2.15;0.43;;;20.40;43.70;;;;;;4495079;31;20142;-72
2021/12/25 11:08:49;;;;;;;1.35;0.45;;;20.50;43.70;;;;;;4494482;31;20566;-73
2021/12/25 11:11:18;;;;;;;1.58;0.40;;;20.50;43.30;;;;;;4480310;31;20129;-69
2021/12/25 11:13:43;;;;;;;1.42;0.40;;;20.60;43.20;;;;;;4494039;31;20143;-69
2021/12/25 11:16:14;;;;;;;2.25;0.40;;;20.60;43.10;;;;;;4493520;31;20133;-71
2021/12/25 11:19:12;;;;;;;3.17;0.40;;;20.70;43.10;;;;;;4494778;31;20136;-71
2021/12/25 11:21:56;;;;;;;2.40;0.50;;;20.70;43.00;;;;;;4495202;31;20124;-73
2021/12/25 11:24:30;;;;;;;1.48;0.45;;;20.80;42.90;;;;;;4493243;31;20230;-72
2021/12/25 11:27:02;;;;;;;4.25;0.52;;;20.90;42.90;;;;;;4493808;31;20159;-73
2021/12/25 11:29:31;;;;;;;1.35;0.60;;;21.00;42.80;;;;;;4494831;31;20144;-72
2021/12/25 11:31:58;;;;;;;1.77;0.52;;;21.00;42.70;;;;;;4493965;31;20160;-74
2021/12/25 11:34:25;;;;;;;3.83;0.60;;;21.00;42.60;;;;;;4481040;31;20564;-70
2021/12/25 11:36:53;;;;;;;3.17;0.55;;;21.10;42.60;;;;;;4494269;31;20613;-72
2021/12/25 11:39:21;;;;;;;2.40;0.40;;;21.10;42.70;;;;;;4494144;32;20116;-73
2021/12/25 11:41:48;;;;;;;1.20;0.30;;;21.10;42.80;;;;;;4493057;32;20137;-74
2021/12/25 11:44:31;;;;;;;0.65;0.40;;;21.10;42.90;;;;;;4494763;32;20174;-72
2021/12/25 11:46:58;;;;;;;1.08;0.45;;;21.10;42.90;;;;;;4495073;31;20152;-72
2021/12/25 11:49:24;;;;;;;1.58;0.40;;;21.20;42.90;;;;;;4493347;32;20179;-73
2021/12/25 11:51:51;;;;;;;0.82;0.40;;;21.20;42.80;;;;;;4493713;32;20295;-72
2021/12/25 11:55:18;;;;;;;0.70;0.32;;;21.20;42.70;;;;;;4493028;32;20137;-72
2021/12/25 11:59:45;;;;;;;2.47;0.60;;;21.20;42.70;;;;;;4494373;32;20187;-74
2021/12/25 12:02:32;;;;;;;2.33;0.30;;;21.30;42.80;;;;;;4493310;32;20121;-74
2021/12/25 12:05:25;;;;;;;0.85;0.40;;;21.20;42.90;;;;;;4494710;32;20205;-72
2021/12/25 12:08:12;;;;;;;2.00;0.43;;;21.20;43.00;;;;;;4495372;31;20136;-71
2021/12/25 12:10:46;;;;;;;1.20;0.45;;;21.20;43.20;;;;;;4496836;31;20144;-70
2021/12/25 12:13:30;;;;;;;2.92;0.50;;;21.20;43.20;;;;;;4497942;31;20124;-70
2021/12/25 12:16:01;;;;;;;;;;;21.20;43.40;;;;;;4496402;31;20344;-72
2021/12/25 12:18:31;;;;;;;3.30;0.77;;;21.20;43.60;;;;;;4497634;31;20025;-71
2021/12/25 12:21:10;;;;;;;1.55;0.38;;;21.20;43.50;;;;;;4496402;31;20148;-73
2021/12/25 12:26:08;;;;;;;2.13;0.30;;;21.20;43.60;;;;;;4497943;31;20214;-73
2021/12/25 12:28:48;;;;;;;4.47;0.45;;;21.30;43.60;;;;;;4483205;31;20629;-68
2021/12/25 12:31:36;;;;;;;2.58;0.43;;;21.30;43.60;;;;;;4496403;31;20147;-74
2021/12/25 12:34:32;;;;;;;1.08;0.32;;;21.30;43.50;;;;;;4496272;31;20124;-74
2021/12/25 12:37:16;;;;;;;0.93;0.40;;;21.40;43.40;;;;;;4495460;31;20180;-74
2021/12/25 12:40:03;;;;;;;1.40;0.43;;;21.50;43.30;;;;;;4495760;31;20140;-74
2021/12/25 12:42:43;;;;;;;1.02;0.32;;;21.50;43.30;;;;;;4496422;31;20135;-74
2021/12/25 12:45:08;;;;;;;3.45;0.30;;;21.50;43.30;;;;;;4495460;31;20501;-73
2021/12/25 12:47:34;;;;;;;2.08;0.50;;;21.50;43.30;;;;;;4496711;31;20246;-75
2021/12/25 12:50:02;;;;;;;3.47;0.50;;;21.50;43.40;;;;;;4496283;31;20152;-76
2021/12/25 12:52:38;;;;;;;0.98;0.40;;;21.50;43.30;;;;;;4496905;31;20139;-79
2021/12/25 12:55:10;;;;;;;1.45;0.50;;;21.50;43.50;;;;;;4496638;31;20510;-74
2021/12/25 12:57:42;;;;;;;1.65;0.40;;;21.50;43.70;;;;;;4495424;31;20142;-69
2021/12/25 13:00:14;;;;;;;4.13;0.60;;;21.40;43.70;;;;;;4482340;31;20490;-71
2021/12/25 13:02:44;;;;;;;6.72;0.50;;;21.40;44.00;;;;;;4496267;31;20141;-71
2021/12/25 13:05:11;;;;;;;2.63;0.50;;;21.40;45.00;;;;;;4495552;31;20150;-72
2021/12/25 13:07:42;;;;;;;1.23;0.55;;;21.40;44.10;;;;;;4483151;31;20140;-72
2021/12/25 13:10:24;;;;;;;3.63;0.65;;;21.50;44.20;;;;;;4507972;31;20598;-73
2021/12/25 13:12:56;;;;;;;4.68;0.52;;;21.50;44.00;;;;;;4510292;31;20136;-75
2021/12/25 13:15:27;;;;;;;2.20;0.57;;;21.50;44.00;;;;;;4501983;31;20152;-74
2021/12/25 13:17:56;;;;;;;4.47;0.63;;;21.50;43.90;;;;;;4509393;31;20128;-72
2021/12/25 13:20:44;;;;;;;0.73;0.50;;;21.50;43.90;;;;;;4509462;31;20216;-73
2021/12/25 13:23:23;;;;;;;1.77;0.40;;;21.50;43.90;;;;;;4508902;31;20294;-73
2021/12/25 13:25:53;;;;;;;1.23;0.38;;;21.50;43.90;;;;;;4509751;31;20144;-71
2021/12/25 13:28:22;;;;;;;1.48;0.50;;;21.50;43.70;;;;;;4494471;31;20167;-72
2021/12/25 13:30:55;;;;;;;3.70;0.40;;;21.50;43.70;;;;;;4494897;31;20142;-71
2021/12/25 13:33:23;;;;;;;2.72;0.40;;;21.50;43.70;;;;;;4502589;31;20190;-73
2021/12/25 13:36:00;;;;;;;2.45;0.75;;;21.50;43.70;;;;;;4504870;31;20312;-76
2021/12/25 13:38:27;;;;;;;1.10;0.40;;;21.60;44.80;;;;;;4499022;31;20613;-72
2021/12/25 13:40:54;;;;;;;2.67;0.50;;;21.60;43.80;;;;;;4494560;31;20156;-75
2021/12/25 13:43:21;;;;;;;4.38;0.38;;;21.60;43.80;;;;;;4495933;31;20121;-75
2021/12/25 13:45:55;;;;;;;2.33;0.28;;;21.60;43.80;;;;;;4495121;31;20206;-74
2021/12/25 13:48:21;;;;;;;0.77;0.40;;;21.70;43.90;;;;;;4495919;31;20613;-74
2021/12/25 13:50:50;;;;;;;2.38;0.30;;;21.70;43.70;;;;;;4495622;31;20156;-71
2021/12/25 13:53:19;;;;;;;4.07;0.45;;;21.80;43.80;;;;;;4481356;31;20132;-73
2021/12/25 13:55:47;;;;;;;2.03;0.43;;;21.80;43.70;;;;;;4497120;31;20181;-72
2021/12/25 13:58:15;;;;;;;3.28;0.45;;;21.90;43.70;;;;;;4509247;31;20254;-71
2021/12/25 14:00:46;;;;;;;1.38;0.30;;;22.00;43.80;;;;;;4498078;31;20131;-74
2021/12/25 14:03:24;;;;;;;0.82;0.30;;;22.00;43.80;;;;;;4501902;31;20233;-71
2021/12/25 14:05:52;;;;;;;2.30;0.40;;;22.10;43.50;;;;;;4505490;31;20238;-70
2021/12/25 14:08:21;;;;;;;1.20;0.47;;;22.10;43.00;;;;;;4481199;31;20150;-72
2021/12/25 14:10:47;;;;;;;1.88;0.38;;;22.10;43.00;;;;;;4495029;31;20132;-72
2021/12/25 14:13:19;;;;;;;3.80;0.50;;;22.10;43.00;;;;;;4494342;31;20309;-72
2021/12/25 14:15:51;;;;;;;0.75;0.50;;;22.10;43.00;;;;;;4494676;31;20150;-72
2021/12/25 14:18:19;;;;;;;1.92;0.32;;;22.20;43.00;;;;;;4505005;31;20164;-70
2021/12/25 14:20:46;;;;;;;1.58;0.40;;;22.20;43.00;;;;;;4506115;31;20137;-71
2021/12/25 14:23:12;;;;;;;3.40;0.30;;;22.20;42.90;;;;;;4500830;31;20217;-71
2021/12/25 14:26:01;;;;;;;0.93;0.43;;;22.20;42.90;;;;;;4502070;31;20172;-71
2021/12/25 14:28:36;;;;;;;7.07;0.40;;;22.30;43.00;;;;;;4491534;31;20246;-72
2021/12/25 14:31:16;;;;;;;2.15;0.52;;;22.30;43.20;;;;;;4499487;31;20602;-70